NCAR-RAP Real-Time Weather Data

Output produced by METARs form (24 July 2017  08:54 UTC)
found at http://weather.rap.ucar.edu/surface/
 
Conditions at: KDAB observed 24 July 2017  07:53 UTC
Temperature: 24.4°C (76°F)
Dewpoint: 23.9°C (75°F) [RH = 97%]
Pressure (altimeter): 29.99 inches Hg (1015.7 mb)
[Sea-level pressure: 1015.5 mb]
Winds: from the SSW (200 degrees) at 5 MPH (4 knots; 2.1 m/s)
Visibility: 8 miles (13 km)
Ceiling: 25000 feet AGL
Clouds: overcast cloud deck at 25000 feet AGL
Present Weather: no significant weather observed at this time
KDAB 240753Z 20004KT 8SM OVC250 24/24 A2999 RMK AO2 SLP155 T02440239

Conditions at: KDAB observed 24 July 2017  06:53 UTC
Temperature: 24.4°C (76°F)
Dewpoint: 23.9°C (75°F) [RH = 97%]
Pressure (altimeter): 30.02 inches Hg (1016.7 mb)
[Sea-level pressure: 1016.4 mb]
Winds: from the S (190 degrees) at 5 MPH (4 knots; 2.1 m/s)
Visibility: 9 miles (14 km)
Ceiling: 25000 feet AGL
Clouds: few clouds at 10000 feet AGL
broken clouds at 25000 feet AGL
Present Weather: no significant weather observed at this time
KDAB 240653Z 19004KT 9SM FEW100 BKN250 24/24 A3002 RMK AO2 SLP164 T02440239

Conditions at: KDAB observed 24 July 2017  05:53 UTC
Temperature: 24.4°C (76°F)
Dewpoint: 23.9°C (75°F) [RH = 97%]
Pressure (altimeter): 30.03 inches Hg (1017.0 mb)
[Sea-level pressure: 1016.8 mb]
Winds: calm
Visibility: 9 miles (14 km)
Ceiling: at least 12,000 feet AGL
Clouds: few clouds at 10000 feet AGL
scattered clouds at 25000 feet AGL
Present Weather: no significant weather observed at this time
KDAB 240553Z 00000KT 9SM FEW100 SCT250 24/24 A3003 RMK AO2 SLP168 T02440239 10272 20244 58000

Conditions at: KDAB observed 24 July 2017  04:53 UTC
Temperature: 25.0°C (77°F)
Dewpoint: 23.9°C (75°F) [RH = 94%]
Pressure (altimeter): 30.04 inches Hg (1017.4 mb)
[Sea-level pressure: 1017.2 mb]
Winds: from the S (190 degrees) at 3 MPH (3 knots; 1.6 m/s)
Visibility: 10 or more miles (16+ km)
Ceiling: at least 12,000 feet AGL
Clouds: scattered clouds at 11000 feet AGL
Present Weather: no significant weather observed at this time
KDAB 240453Z 19003KT 10SM SCT110 25/24 A3004 RMK AO2 SLP172 T02500239 403000239

Conditions at: KDAB observed 24 July 2017  03:53 UTC
Temperature: 25.0°C (77°F)
Dewpoint: 23.9°C (75°F) [RH = 94%]
Pressure (altimeter): 30.05 inches Hg (1017.7 mb)
[Sea-level pressure: 1017.4 mb]
Winds: from the S (170 degrees) at 5 MPH (4 knots; 2.1 m/s)
Visibility: 10 or more miles (16+ km)
Ceiling: at least 12,000 feet AGL
Clouds: scattered clouds at 11000 feet AGL
Present Weather: no significant weather observed at this time
KDAB 240353Z 17004KT 10SM SCT110 25/24 A3005 RMK AO2 SLP174 T02500239

Conditions at: KDAB observed 24 July 2017  02:53 UTC
Temperature: 24.4°C (76°F)
Dewpoint: 23.9°C (75°F) [RH = 97%]
Pressure (altimeter): 30.03 inches Hg (1017.0 mb)
[Sea-level pressure: 1016.9 mb]
Winds: calm
Visibility: 10 or more miles (16+ km)
Ceiling: at least 12,000 feet AGL
Clouds: sky clear below 12,000 feet AGL
Present Weather: no significant weather observed at this time
KDAB 240253Z 00000KT 10SM CLR 24/24 A3003 RMK AO2 SLP169 T02440239 53016

Conditions at: KDAB observed 24 July 2017  01:53 UTC
Temperature: 25.6°C (78°F)
Dewpoint: 23.3°C (74°F) [RH = 87%]
Pressure (altimeter): 30.01 inches Hg (1016.3 mb)
[Sea-level pressure: 1016.1 mb]
Winds: calm
Visibility: 10 or more miles (16+ km)
Ceiling: at least 12,000 feet AGL
Clouds: few clouds at 25000 feet AGL
Present Weather: no significant weather observed at this time
KDAB 240153Z 00000KT 10SM FEW250 26/23 A3001 RMK AO2 SLP161 T02560233

Conditions at: KDAB observed 24 July 2017  00:53 UTC
Temperature: 26.1°C (79°F)
Dewpoint: 23.3°C (74°F) [RH = 85%]
Pressure (altimeter): 30.00 inches Hg (1016.0 mb)
[Sea-level pressure: 1015.6 mb]
Winds: from the S (190 degrees) at 3 MPH (3 knots; 1.6 m/s)
Visibility: 10 or more miles (16+ km)
Ceiling: 20000 feet AGL
Clouds: few clouds at 8500 feet AGL
scattered clouds at 15000 feet AGL
broken clouds at 20000 feet AGL
Present Weather: no significant weather observed at this time
KDAB 240053Z 19003KT 10SM FEW085 SCT150 BKN200 26/23 A3000 RMK AO2 SLP156 T02610233

Conditions at: KDAB observed 23 July 2017  23:53 UTC
Temperature: 27.2°C (81°F)
Dewpoint: 22.8°C (73°F) [RH = 77%]
Pressure (altimeter): 29.98 inches Hg (1015.3 mb)
[Sea-level pressure: 1015.3 mb]
Winds: from the SSW (210 degrees) at 3 MPH (3 knots; 1.6 m/s)
Visibility: 10 or more miles (16+ km)
Ceiling: 20000 feet AGL
Clouds: few clouds at 6500 feet AGL
scattered clouds at 8000 feet AGL
scattered clouds at 15000 feet AGL
broken clouds at 20000 feet AGL
Present Weather: no significant weather observed at this time
KDAB 232353Z 21003KT 10SM FEW065 SCT080 SCT150 BKN200 27/23 A2998 RMK AO2 SLP153 60001 T02720228 10294 20239 56013

Conditions at: KDAB observed 23 July 2017  22:53 UTC
Temperature: 28.3°C (83°F)
Dewpoint: 22.8°C (73°F) [RH = 72%]
Pressure (altimeter): 29.99 inches Hg (1015.7 mb)
[Sea-level pressure: 1015.3 mb]
Winds: from the SSW (210 degrees) at 13 MPH (11 knots; 5.7 m/s)
Visibility: 10 or more miles (16+ km)
Ceiling: 20000 feet AGL
Clouds: few clouds at 2000 feet AGL
scattered clouds at 6500 feet AGL
scattered clouds at 8000 feet AGL
broken clouds at 20000 feet AGL
Present Weather: no significant weather observed at this time
KDAB 232253Z 21011KT 10SM FEW020 SCT065 SCT080 BKN200 28/23 A2999 RMK AO2 SLP153 T02830228

Conditions at: KDAB observed 23 July 2017  21:53 UTC
Temperature: 28.3°C (83°F)
Dewpoint: 23.3°C (74°F) [RH = 74%]
Pressure (altimeter): 30.00 inches Hg (1016.0 mb)
[Sea-level pressure: 1015.9 mb]
Winds: from the SSW (210 degrees) at 10 MPH (9 knots; 4.7 m/s)
Visibility: 10 or more miles (16+ km)
Ceiling: 20000 feet AGL
Clouds: few clouds at 2500 feet AGL
few clouds at 6500 feet AGL
scattered clouds at 8000 feet AGL
broken clouds at 20000 feet AGL
Present Weather: no significant weather observed at this time
KDAB 232153Z 21009KT 10SM FEW025 FEW065 SCT080 BKN200 28/23 A3000 RMK AO2 SLP159 T02830233

Conditions at: KDAB observed 23 July 2017  20:53 UTC
Temperature: 27.2°C (81°F)
Dewpoint: 23.3°C (74°F) [RH = 79%]
Pressure (altimeter): 30.02 inches Hg (1016.7 mb)
[Sea-level pressure: 1016.6 mb]
Winds: from the SW (230 degrees) at 10 MPH (9 knots; 4.7 m/s)
Visibility: 10 or more miles (16+ km)
Ceiling: 20000 feet AGL
Clouds: few clouds at 2500 feet AGL
scattered clouds at 8000 feet AGL
scattered clouds at 15000 feet AGL
broken clouds at 20000 feet AGL
Present Weather: no significant weather observed at this time
KDAB 232053Z 23009KT 10SM FEW025 SCT080 SCT150 BKN200 27/23 A3002 RMK AO2 SLP166 CB DSNT NW 60001 T02720233 56017

Conditions at: KDAB observed 23 July 2017  19:53 UTC
Temperature: 26.1°C (79°F)
Dewpoint: 23.3°C (74°F) [RH = 85%]
Pressure (altimeter): 30.04 inches Hg (1017.4 mb)
[Sea-level pressure: 1017.3 mb]
Winds: from the SW (220 degrees) at 7 MPH (6 knots; 3.1 m/s)
Visibility: 10 or more miles (16+ km)
Ceiling: 15000 feet AGL
Clouds: few clouds at 2500 feet AGL
scattered clouds at 8000 feet AGL
broken clouds at 15000 feet AGL
overcast cloud deck at 20000 feet AGL
Present Weather: no significant weather observed at this time
KDAB 231953Z 22006KT 10SM FEW025 SCT080 BKN150 OVC200 26/23 A3004 RMK AO2 SLP173 CB DSNT E S T02610233

Conditions at: KDAB observed 23 July 2017  18:53 UTC
Temperature: 24.4°C (76°F)
Dewpoint: 22.8°C (73°F) [RH = 91%]
Pressure (altimeter): 30.05 inches Hg (1017.7 mb)
[Sea-level pressure: 1017.5 mb]
Winds: from the SW (220 degrees) at 5 MPH (4 knots; 2.1 m/s)
Visibility: 10 or more miles (16+ km)
Ceiling: 8000 feet AGL
Clouds: few clouds at 3000 feet AGL
few clouds at 4500 feet AGL
broken clouds at 8000 feet AGL
overcast cloud deck at 15000 feet AGL
Present Weather: no significant weather observed at this time
KDAB 231853Z 22004KT 10SM FEW030 FEW045 BKN080 OVC150 24/23 A3005 RMK AO2 RAE33 SLP175 CB DSNT SE TCU DSNT S P0001 T02440228

Conditions at: KDAB observed 23 July 2017  17:53 UTC
Temperature: 24.4°C (76°F)
Dewpoint: 23.9°C (75°F) [RH = 97%]
Pressure (altimeter): 30.07 inches Hg (1018.4 mb)
[Sea-level pressure: 1018.3 mb]
Winds: from the WSW (240 degrees) at 6 MPH (5 knots; 2.6 m/s)
Visibility: 7 miles (11 km)
Ceiling: 8000 feet AGL
Clouds: few clouds at 1200 feet AGL
few clouds at 2500 feet AGL
broken clouds at 8000 feet AGL
broken clouds at 15000 feet AGL
Present Weather: -RA  (light rain)
KDAB 231753Z 24005KT 7SM -RA FEW012 FEW025 BKN080 BKN150 24/24 A3007 RMK AO2 TSE05 SLP183 TS DSIPTD CB DSNT SE-S P0003 60003 T02440239 10300 20239 50008

Conditions at: KDAB observed 23 July 2017  17:06 UTC
Temperature: 24.4°C (76°F)
Dewpoint: 23.3°C (74°F) [RH = 94%]
Pressure (altimeter): 30.09 inches Hg (1019.0 mb)
Winds: from the W (270 degrees) at 9 MPH (8 knots; 4.2 m/s)
Visibility: 7 miles (11 km)
Ceiling: 5500 feet AGL
Clouds: scattered clouds at 2500 feet AGL
broken clouds at 5500 feet AGL
broken clouds at 9000 feet AGL
overcast cloud deck at 15000 feet AGL
Present Weather: -RA  (light rain)
KDAB 231706Z 27008KT 7SM -RA SCT025CB BKN055 BKN090 OVC150 24/23 A3009 RMK AO2 LTG DSNT NE TSE05 TS DSIPTD CB NW-N MOV E CB DSNT NE S-SW P0001 T02440233

Conditions at: KDAB observed 23 July 2017  16:53 UTC
Temperature: 25.0°C (77°F)
Dewpoint: 23.3°C (74°F) [RH = 90%]
Pressure (altimeter): 30.09 inches Hg (1019.0 mb)
[Sea-level pressure: 1019.0 mb]
Winds: from the WNW (290 degrees) at 12 MPH (10 knots; 5.2 m/s)
Visibility: 9 miles (14 km)
Ceiling: 2500 feet AGL
Clouds: few clouds at 1200 feet AGL
broken clouds at 2500 feet AGL
overcast cloud deck at 6000 feet AGL
Present Weather: -TSRA  (light rain associated with thunderstorm(s))
KDAB 231653Z 29010KT 9SM -TSRA FEW012 BKN025CB OVC060 25/23 A3009 RMK AO2 LTG DSNT ALQDS SLP190 TSB01 OCNL LTGICCG W-N TS W-N MOV E CB DSNT S SW P0000 T02500233

Conditions at: KDAB observed 23 July 2017  16:39 UTC
Temperature: 26.1°C (79°F)
Dewpoint: 22.8°C (73°F) [RH = 82%]
Pressure (altimeter): 30.09 inches Hg (1019.0 mb)
Winds: from the WNW (300 degrees) at 14 MPH (12 knots; 6.2 m/s)
gusting to 23 MPH (20 knots; 10.4 m/s)
Visibility: 9 miles (14 km)
Ceiling: 2000 feet AGL
Clouds: few clouds at 1200 feet AGL
broken clouds at 2000 feet AGL
broken clouds at 4500 feet AGL
overcast cloud deck at 15000 feet AGL
Present Weather: TS  (thunderstorm)
KDAB 231639Z 30012G20KT 9SM TS FEW012 BKN020CB BKN045 OVC150 26/23 A3009 RMK AO2 LTG DSNT ALQDS TSB01 FRQ LTGICCG SW-NW TS SW-NW MOV E CB DSNT N SE SHELF CLOUD SW-NW MOV E T02610228

Conditions at: KDAB observed 23 July 2017  16:01 UTC
Temperature: 29.4°C (85°F)
Dewpoint: 23.3°C (74°F) [RH = 70%]
Pressure (altimeter): 30.06 inches Hg (1018.0 mb)
Winds: from the SW (220 degrees) at 9 MPH (8 knots; 4.2 m/s)
Visibility: 9 miles (14 km)
Ceiling: 15000 feet AGL
Clouds: few clouds at 3000 feet AGL
few clouds at 5000 feet AGL
few clouds at 7000 feet AGL
broken clouds at 15000 feet AGL
Present Weather: TS  (thunderstorm)
KDAB 231601Z COR 22008KT 9SM TS FEW030CB FEW050 FEW070 BKN150 BKN200 29/23 A3006 RMK AO2 LTG DSNT SW-N TSB01 OCNL LTGICCG VC SW-W TS VC SW-W MOV NE CB DSNT SW-NW-N T02940233

Conditions at: KDAB observed 23 July 2017  15:53 UTC
Temperature: 29.4°C (85°F)
Dewpoint: 23.3°C (74°F) [RH = 70%]
Pressure (altimeter): 30.06 inches Hg (1018.0 mb)
[Sea-level pressure: 1017.9 mb]
Winds: from the SW (230 degrees) at 8 MPH (7 knots; 3.6 m/s)
Visibility: 9 miles (14 km)
Ceiling: 15000 feet AGL
Clouds: few clouds at 3000 feet AGL
few clouds at 5000 feet AGL
few clouds at 8000 feet AGL
broken clouds at 15000 feet AGL
Present Weather: no significant weather observed at this time
KDAB 231553Z 23007KT 9SM FEW030 FEW050 FEW080 BKN150 BKN200 29/23 A3006 RMK AO2 LTG DSNT SW-N SLP179 CB DSNT SW-NW-NE T02940233

Conditions at: KDAB observed 23 July 2017  14:53 UTC
Temperature: 28.9°C (84°F)
Dewpoint: 23.9°C (75°F) [RH = 74%]
Pressure (altimeter): 30.05 inches Hg (1017.7 mb)
[Sea-level pressure: 1017.5 mb]
Winds: from the SSW (200 degrees) at 8 MPH (7 knots; 3.6 m/s)
Visibility: 10 or more miles (16+ km)
Ceiling: 15000 feet AGL
Clouds: few clouds at 2500 feet AGL
few clouds at 7500 feet AGL
broken clouds at 15000 feet AGL
broken clouds at 20000 feet AGL
Present Weather: no significant weather observed at this time
KDAB 231453Z 20007KT 10SM FEW025 FEW075 BKN150 BKN200 29/24 A3005 RMK AO2 LTG DSNT W SLP175 CB DSNT SW-NW-N T02890239 50000

Conditions at: KDAB observed 23 July 2017  13:53 UTC
Temperature: 27.2°C (81°F)
Dewpoint: 23.3°C (74°F) [RH = 79%]
Pressure (altimeter): 30.06 inches Hg (1018.0 mb)
[Sea-level pressure: 1017.8 mb]
Winds: from the SSW (210 degrees) at 8 MPH (7 knots; 3.6 m/s)
Visibility: 10 or more miles (16+ km)
Ceiling: 15000 feet AGL
Clouds: few clouds at 3000 feet AGL
scattered clouds at 8000 feet AGL
broken clouds at 15000 feet AGL
broken clouds at 20000 feet AGL
Present Weather: no significant weather observed at this time
KDAB 231353Z 21007KT 10SM FEW030 SCT080 BKN150 BKN200 27/23 A3006 RMK AO2 LTG DSNT NW SLP178 CB DSNT SW-NW-N T02720233

Conditions at: KDAB observed 23 July 2017  12:53 UTC
Temperature: 25.6°C (78°F)
Dewpoint: 23.9°C (75°F) [RH = 90%]
Pressure (altimeter): 30.06 inches Hg (1018.0 mb)
[Sea-level pressure: 1017.9 mb]
Winds: from the SSW (200 degrees) at 5 MPH (4 knots; 2.1 m/s)
Visibility: 10 or more miles (16+ km)
Ceiling: 15000 feet AGL
Clouds: few clouds at 3000 feet AGL
few clouds at 6000 feet AGL
broken clouds at 15000 feet AGL
broken clouds at 20000 feet AGL
Present Weather: no significant weather observed at this time
KDAB 231253Z 20004KT 10SM FEW030TCU FEW060 BKN150 BKN200 26/24 A3006 RMK AO2 SLP179 TCU NW CB DSNT W-NW T02560239

Conditions at: KDAB observed 23 July 2017  11:53 UTC
Temperature: 25.0°C (77°F)
Dewpoint: 23.9°C (75°F) [RH = 94%]
Pressure (altimeter): 30.05 inches Hg (1017.7 mb)
[Sea-level pressure: 1017.5 mb]
Winds: from the SSW (200 degrees) at 6 MPH (5 knots; 2.6 m/s)
Visibility: 9 miles (14 km)
Ceiling: 15000 feet AGL
Clouds: few clouds at 3000 feet AGL
few clouds at 6000 feet AGL
broken clouds at 15000 feet AGL
broken clouds at 25000 feet AGL
Present Weather: no significant weather observed at this time
KDAB 231153Z 20005KT 9SM FEW030 FEW060 BKN150 BKN250 25/24 A3005 RMK AO2 SLP175 CB DSNT NW TCU DSNT W 70161 T02500239 10250 20239 53015

Conditions at: KDAB observed 23 July 2017  10:53 UTC
Temperature: 23.9°C (75°F)
Dewpoint: 23.3°C (74°F) [RH = 96%]
Pressure (altimeter): 30.03 inches Hg (1017.0 mb)
[Sea-level pressure: 1016.7 mb]
Winds: from the SSW (200 degrees) at 5 MPH (4 knots; 2.1 m/s)
Visibility: 8 miles (13 km)
Ceiling: 13000 feet AGL
Clouds: broken clouds at 13000 feet AGL
Present Weather: no significant weather observed at this time
KDAB 231053Z 20004KT 8SM BKN130 24/23 A3003 RMK AO2 SLP167 T02390233

Conditions at: KDAB observed 23 July 2017  09:53 UTC
Temperature: 24.4°C (76°F)
Dewpoint: 23.9°C (75°F) [RH = 97%]
Pressure (altimeter): 30.02 inches Hg (1016.7 mb)
[Sea-level pressure: 1016.6 mb]
Winds: from the S (190 degrees) at 5 MPH (4 knots; 2.1 m/s)
Visibility: 9 miles (14 km)
Ceiling: 13000 feet AGL
Clouds: broken clouds at 13000 feet AGL
Present Weather: no significant weather observed at this time
KDAB 230953Z 19004KT 9SM BKN130 24/24 A3002 RMK AO2 SLP166 T02440239

Conditions at: KDAB observed 23 July 2017  08:53 UTC
Temperature: 24.4°C (76°F)
Dewpoint: 23.9°C (75°F) [RH = 97%]
Pressure (altimeter): 30.01 inches Hg (1016.3 mb)
[Sea-level pressure: 1016.0 mb]
Winds: from the S (190 degrees) at 5 MPH (4 knots; 2.1 m/s)
Visibility: 10 or more miles (16+ km)
Ceiling: 13000 feet AGL
Clouds: broken clouds at 13000 feet AGL
Present Weather: no significant weather observed at this time
KDAB 230853Z 19004KT 10SM BKN130 24/24 A3001 RMK AO2 SLP160 T02440239 58012

Conditions at: KDAB observed 23 July 2017  07:53 UTC
Temperature: 24.4°C (76°F)
Dewpoint: 23.9°C (75°F) [RH = 97%]
Pressure (altimeter): 30.02 inches Hg (1016.7 mb)
[Sea-level pressure: 1016.3 mb]
Winds: from the S (190 degrees) at 7 MPH (6 knots; 3.1 m/s)
Visibility: 10 or more miles (16+ km)
Ceiling: 13000 feet AGL
Clouds: broken clouds at 13000 feet AGL
Present Weather: no significant weather observed at this time
KDAB 230753Z 19006KT 10SM BKN130 24/24 A3002 RMK AO2 SLP163 T02440239

Conditions at: KDAB observed 23 July 2017  06:53 UTC
Temperature: 24.4°C (76°F)
Dewpoint: 23.9°C (75°F) [RH = 97%]
Pressure (altimeter): 30.04 inches Hg (1017.4 mb)
[Sea-level pressure: 1017.0 mb]
Winds: from the S (190 degrees) at 3 MPH (3 knots; 1.6 m/s)
Visibility: 10 or more miles (16+ km)
Ceiling: 13000 feet AGL
Clouds: broken clouds at 13000 feet AGL
Present Weather: no significant weather observed at this time
KDAB 230653Z 19003KT 10SM BKN130 24/24 A3004 RMK AO2 SLP170 T02440239

Conditions at: KDAB observed 23 July 2017  05:53 UTC
Temperature: 23.9°C (75°F)
Dewpoint: 23.9°C (75°F) [RH = 100%]
Pressure (altimeter): 30.04 inches Hg (1017.4 mb)
[Sea-level pressure: 1017.2 mb]
Winds: from the S (190 degrees) at 3 MPH (3 knots; 1.6 m/s)
Visibility: 10 or more miles (16+ km)
Ceiling: 13000 feet AGL
Clouds: broken clouds at 13000 feet AGL
Present Weather: no significant weather observed at this time
KDAB 230553Z 19003KT 10SM BKN130 24/24 A3004 RMK AO2 SLP172 T02390239 10244 20239 58008

Conditions at: KDAB observed 23 July 2017  04:53 UTC
Temperature: 24.4°C (76°F)
Dewpoint: 23.9°C (75°F) [RH = 97%]
Pressure (altimeter): 30.06 inches Hg (1018.0 mb)
[Sea-level pressure: 1017.8 mb]
Winds: from the S (180 degrees) at 6 MPH (5 knots; 2.6 m/s)
Visibility: 9 miles (14 km)
Ceiling: 13000 feet AGL
Clouds: broken clouds at 13000 feet AGL
Present Weather: no significant weather observed at this time
KDAB 230453Z 18005KT 9SM BKN130 24/24 A3006 RMK AO2 SLP178 T02440239 403280233

Conditions at: KDAB observed 23 July 2017  03:53 UTC
Temperature: 24.4°C (76°F)
Dewpoint: 23.9°C (75°F) [RH = 97%]
Pressure (altimeter): 30.06 inches Hg (1018.0 mb)
[Sea-level pressure: 1017.7 mb]
Winds: calm
Visibility: 9 miles (14 km)
Ceiling: 13000 feet AGL
Clouds: broken clouds at 13000 feet AGL
Present Weather: no significant weather observed at this time
KDAB 230353Z 00000KT 9SM BKN130 24/24 A3006 RMK AO2 SLP177 T02440239

Conditions at: KDAB observed 23 July 2017  02:53 UTC
Temperature: 23.9°C (75°F)
Dewpoint: 23.9°C (75°F) [RH = 100%]
Pressure (altimeter): 30.07 inches Hg (1018.4 mb)
[Sea-level pressure: 1018.1 mb]
Winds: calm
Visibility: 9 miles (14 km)
Ceiling: at least 12,000 feet AGL
Clouds: scattered clouds at 12000 feet AGL
Present Weather: no significant weather observed at this time
KDAB 230253Z 00000KT 9SM SCT120 24/24 A3007 RMK AO2 SLP181 T02390239 53016

Conditions at: KDAB observed 23 July 2017  02:25 UTC
Temperature: 23.9°C (75°F)
Dewpoint: 23.9°C (75°F) [RH = 100%]
Pressure (altimeter): 30.06 inches Hg (1018.0 mb)
Winds: calm
Visibility: 10 or more miles (16+ km)
Ceiling: at least 12,000 feet AGL
Clouds: few clouds at 500 feet AGL
Present Weather: no significant weather observed at this time
KDAB 230225Z 00000KT 10SM FEW005 24/24 A3006 RMK AO2 T02390239

Conditions at: KDAB observed 23 July 2017  02:02 UTC
Temperature: 23.9°C (75°F)
Dewpoint: 23.9°C (75°F) [RH = 100%]
Pressure (altimeter): 30.06 inches Hg (1018.0 mb)
Winds: from the S (190 degrees) at 7 MPH (6 knots; 3.1 m/s)
Visibility: 10 or more miles (16+ km)
Ceiling: 500 feet AGL
Clouds: overcast cloud deck at 500 feet AGL
Present Weather: no significant weather observed at this time
KDAB 230202Z 19006KT 10SM OVC005 24/24 A3006 RMK AO2 T02390239

Conditions at: KDAB observed 23 July 2017  01:53 UTC
Temperature: 23.9°C (75°F)
Dewpoint: 23.3°C (74°F) [RH = 96%]
Pressure (altimeter): 30.05 inches Hg (1017.7 mb)
[Sea-level pressure: 1017.6 mb]
Winds: from the SSW (200 degrees) at 9 MPH (8 knots; 4.2 m/s)
Visibility: 10 or more miles (16+ km)
Ceiling: 13000 feet AGL
Clouds: scattered clouds at 500 feet AGL
overcast cloud deck at 13000 feet AGL
Present Weather: no significant weather observed at this time
KDAB 230153Z 20008KT 10SM SCT005 OVC130 24/23 A3005 RMK AO2 SLP176 T02390233

Conditions at: KDAB observed 23 July 2017  01:46 UTC
Temperature: 23.9°C (75°F)
Dewpoint: 23.3°C (74°F) [RH = 96%]
Pressure (altimeter): 30.05 inches Hg (1017.7 mb)
Winds: from the S (190 degrees) at 6 MPH (5 knots; 2.6 m/s)
Visibility: 10 or more miles (16+ km)
Ceiling: 13000 feet AGL
Clouds: scattered clouds at 500 feet AGL
overcast cloud deck at 13000 feet AGL
Present Weather: no significant weather observed at this time
KDAB 230146Z 19005KT 10SM SCT005 OVC130 24/23 A3005 RMK AO2 T02390233

Conditions at: KDAB observed 23 July 2017  00:53 UTC
Temperature: 23.9°C (75°F)
Dewpoint: 23.9°C (75°F) [RH = 100%]
Pressure (altimeter): 30.03 inches Hg (1017.0 mb)
[Sea-level pressure: 1016.8 mb]
Winds: from the SSW (200 degrees) at 5 MPH (4 knots; 2.1 m/s)
Visibility: 10 or more miles (16+ km)
Ceiling: 13000 feet AGL
Clouds: few clouds at 6500 feet AGL
scattered clouds at 9000 feet AGL
broken clouds at 13000 feet AGL
Present Weather: no significant weather observed at this time
KDAB 230053Z 20004KT 10SM FEW065 SCT090 BKN130 24/24 A3003 RMK AO2 SLP168 T02390239

Conditions at: KDAB observed 22 July 2017  23:53 UTC
Temperature: 24.4°C (76°F)
Dewpoint: 23.9°C (75°F) [RH = 97%]
Pressure (altimeter): 30.02 inches Hg (1016.7 mb)
[Sea-level pressure: 1016.5 mb]
Winds: calm
Visibility: 10 or more miles (16+ km)
Ceiling: 13000 feet AGL
Clouds: few clouds at 400 feet AGL
few clouds at 6000 feet AGL
scattered clouds at 9000 feet AGL
broken clouds at 13000 feet AGL
Present Weather: no significant weather observed at this time
KDAB 222353Z 00000KT 10SM FEW004 FEW060 SCT090 BKN130 24/24 A3002 RMK AO2 SLP165 60161 T02440239 10311 20239 58020

Conditions at: KDAB observed 22 July 2017  23:44 UTC
Temperature: 24.4°C (76°F)
Dewpoint: 23.9°C (75°F) [RH = 97%]
Pressure (altimeter): 30.03 inches Hg (1017.0 mb)
Winds: calm
Visibility: 10 or more miles (16+ km)
Ceiling: 13000 feet AGL
Clouds: few clouds at 400 feet AGL
few clouds at 6000 feet AGL
scattered clouds at 9000 feet AGL
broken clouds at 13000 feet AGL
Present Weather: no significant weather observed at this time
KDAB 222344Z 00000KT 10SM FEW004 FEW060 SCT090 BKN130 24/24 A3003 RMK AO2 T02440239

Conditions at: KDAB observed 22 July 2017  22:53 UTC
Temperature: 24.4°C (76°F)
Dewpoint: 23.9°C (75°F) [RH = 97%]
Pressure (altimeter): 30.06 inches Hg (1018.0 mb)
[Sea-level pressure: 1017.7 mb]
Winds: from the S (190 degrees) at 6 MPH (5 knots; 2.6 m/s)
Visibility: 10 or more miles (16+ km)
Ceiling: 11000 feet AGL
Clouds: few clouds at 6000 feet AGL
scattered clouds at 9000 feet AGL
broken clouds at 11000 feet AGL
Present Weather: no significant weather observed at this time
KDAB 222253Z 19005KT 10SM FEW060 SCT090 BKN110 24/24 A3006 RMK AO2 RAE49 SLP177 P0000 T02440239

Conditions at: KDAB observed 22 July 2017  21:53 UTC
Temperature: 24.4°C (76°F)
Dewpoint: 23.9°C (75°F) [RH = 97%]
Pressure (altimeter): 30.07 inches Hg (1018.4 mb)
[Sea-level pressure: 1018.2 mb]
Winds: from the SSW (200 degrees) at 3 MPH (3 knots; 1.6 m/s)
Visibility: 10 or more miles (16+ km)
Ceiling: 8500 feet AGL
Clouds: scattered clouds at 5000 feet AGL
scattered clouds at 7000 feet AGL
broken clouds at 8500 feet AGL
broken clouds at 13000 feet AGL
Present Weather: -RA  (light rain)
SOME DATA ABOVE MAY BE INACCURATE!!!
"$" is an indication the sensor requires maintenance
KDAB 222153Z 20003KT 10SM -RA SCT050 SCT070 BKN085 BKN130 24/24 A3007 RMK AO2 TSE17 SLP182 TS DSIPTD P0004 T02440239 $

Conditions at: KDAB observed 22 July 2017  21:18 UTC
Temperature: 23.9°C (75°F)
Dewpoint: 23.9°C (75°F) [RH = 100%]
Pressure (altimeter): 30.08 inches Hg (1018.7 mb)
Winds: from the S (170 degrees) at 5 MPH (4 knots; 2.1 m/s)
Visibility: 8 miles (13 km)
Ceiling: 13000 feet AGL
Clouds: few clouds at 2000 feet AGL
few clouds at 7000 feet AGL
scattered clouds at 9000 feet AGL
broken clouds at 13000 feet AGL
Present Weather: -RA  (light rain)
SOME DATA ABOVE MAY BE INACCURATE!!!
"$" is an indication the sensor requires maintenance
KDAB 222118Z 17004KT 8SM -RA FEW020 FEW070 SCT090 BKN130 24/24 A3008 RMK AO2 TSE17 TS DSIPTD P0003 T02390239 $

Conditions at: KDAB observed 22 July 2017  20:53 UTC
Temperature: 23.9°C (75°F)
Dewpoint: 23.9°C (75°F) [RH = 100%]
Pressure (altimeter): 30.08 inches Hg (1018.7 mb)
[Sea-level pressure: 1018.5 mb]
Winds: from the S (180 degrees) at 5 MPH (4 knots; 2.1 m/s)
Visibility: 7 miles (11 km)
Ceiling: 13000 feet AGL
Clouds: few clouds at 2000 feet AGL
few clouds at 7000 feet AGL
scattered clouds at 12000 feet AGL
broken clouds at 13000 feet AGL
Present Weather: -TSRA  (light rain associated with thunderstorm(s))
SOME DATA ABOVE MAY BE INACCURATE!!!
"$" is an indication the sensor requires maintenance
KDAB 222053Z 18004KT 7SM -TSRA FEW020CB FEW070 SCT120 BKN130 24/24 A3008 RMK AO2 RAE02B20 SLP185 OCNL LTGIC VC NE TS VC NE MOV NE P0001 60157 T02390239 51013 $

Conditions at: KDAB observed 22 July 2017  19:53 UTC
Temperature: 23.9°C (75°F)
Dewpoint: 23.9°C (75°F) [RH = 100%]
Pressure (altimeter): 30.06 inches Hg (1018.0 mb)
[Sea-level pressure: 1017.9 mb]
Winds: from the SSW (210 degrees) at 5 MPH (4 knots; 2.1 m/s)
Visibility: 10 or more miles (16+ km)
Ceiling: 10000 feet AGL
Clouds: few clouds at 2000 feet AGL
scattered clouds at 4000 feet AGL
broken clouds at 10000 feet AGL
overcast cloud deck at 20000 feet AGL
Present Weather: -TSRA  (light rain associated with thunderstorm(s))
SOME DATA ABOVE MAY BE INACCURATE!!!
"$" is an indication the sensor requires maintenance
KDAB 221953Z COR 21004KT 10SM -TSRA FEW020CB SCT040 BKN100 OVC200 24/24 A3006 RMK AO2 LTG DSNT ALQDS SLP179 OCNL LTGIC OHD-N TS OHD-N MOV NE CB E-SE MOV NE CB DSNT S P0057 T02390239 $

Conditions at: KDAB observed 22 July 2017  19:32 UTC
Temperature: 23.9°C (75°F)
Dewpoint: 23.3°C (74°F) [RH = 96%]
Pressure (altimeter): 30.07 inches Hg (1018.4 mb)
Winds: calm
Visibility: 6 miles (10 km)
Ceiling: 4000 feet AGL
Clouds: scattered clouds at 2000 feet AGL
broken clouds at 4000 feet AGL
overcast cloud deck at 10000 feet AGL
Present Weather: TSRA BR  (rain associated with thunderstorm(s), mist)
SOME DATA ABOVE MAY BE INACCURATE!!!
"$" is an indication the sensor requires maintenance
KDAB 221932Z 00000KT 6SM TSRA BR SCT020CB BKN040 OVC100 24/23 A3007 RMK AO2 LTG DSNT ALQDS CONS LTGICCG OHD-NW-NE-E TS OHD-NW-NE-E MOV NE CB SE MOV NE P0057 T02390233 $

Conditions at: KDAB observed 22 July 2017  19:25 UTC
Temperature: 23.9°C (75°F)
Dewpoint: 23.3°C (74°F) [RH = 96%]
Pressure (altimeter): 30.07 inches Hg (1018.4 mb)
Winds: from the S (190 degrees) at 3 MPH (3 knots; 1.6 m/s)
Visibility: 5 miles (8 km)
Ceiling: 2000 feet AGL
Clouds: few clouds at 1000 feet AGL
broken clouds at 2000 feet AGL
overcast cloud deck at 4000 feet AGL
Present Weather: TSRA BR  (rain associated with thunderstorm(s), mist)
SOME DATA ABOVE MAY BE INACCURATE!!!
"$" is an indication the sensor requires maintenance
KDAB 221925Z 19003KT 5SM TSRA BR FEW010 BKN020CB OVC040 24/23 A3007 RMK AO2 LTG DSNT ALQDS CONS LTGICCG OHD-NW-NE-E TS OHD-NW-NE-E MOV NE P0055 T02390233 $

Conditions at: KDAB observed 22 July 2017  19:21 UTC
Temperature: 23.9°C (75°F)
Dewpoint: 23.3°C (74°F) [RH = 96%]
Pressure (altimeter): 30.08 inches Hg (1018.7 mb)
Winds: from the S (180 degrees) at 3 MPH (3 knots; 1.6 m/s)
Visibility: 2.00 miles (3.22 km)
Ceiling: 2000 feet AGL
Clouds: few clouds at 1000 feet AGL
broken clouds at 2000 feet AGL
overcast cloud deck at 4000 feet AGL
Present Weather: TSRA BR  (rain associated with thunderstorm(s), mist)
SOME DATA ABOVE MAY BE INACCURATE!!!
"$" is an indication the sensor requires maintenance
KDAB 221921Z 18003KT 2SM TSRA BR FEW010 BKN020CB OVC040 24/23 A3008 RMK AO2 LTG DSNT ALQDS CONS LTGICCG OHD-NW-NE-E TS OHD-NW-NE-E MOV NE P0055 T02390233 $

Conditions at: KDAB observed 22 July 2017  19:06 UTC
Temperature: 24.4°C (76°F)
Dewpoint: 23.9°C (75°F) [RH = 97%]
Pressure (altimeter): 30.08 inches Hg (1018.7 mb)
Winds: from the W (280 degrees) at 9 MPH (8 knots; 4.2 m/s)
Visibility: 1.00 miles (1.61 km)
Ceiling: 2000 feet AGL
Clouds: scattered clouds at 1000 feet AGL
overcast cloud deck at 2000 feet AGL
Present Weather: +TSRA BR  (heavy rain associated with thunderstorm(s), mist)
SOME DATA ABOVE MAY BE INACCURATE!!!
"$" is an indication the sensor requires maintenance
KDAB 221906Z 28008KT 1SM +TSRA BR SCT010 OVC020CB 24/24 A3008 RMK AO2 LTG DSNT ALQDS CONS LTGICCG OHD-N-E-S TS OHD-N-E-S MOV NE P0044 T02440239 RVRNO $

Conditions at: KDAB observed 22 July 2017  18:53 UTC
Temperature: 24.4°C (76°F)
Dewpoint: 23.3°C (74°F) [RH = 94%]
Pressure (altimeter): 30.09 inches Hg (1019.0 mb)
[Sea-level pressure: 1018.9 mb]
Winds: from the W (270 degrees) at 10 MPH (9 knots; 4.7 m/s)
gusting to 20 MPH (17 knots; 8.8 m/s)
Visibility: 0.50 miles (0.80 km)
Ceiling: 2100 feet AGL
Clouds: scattered clouds at 1000 feet AGL
overcast cloud deck at 2100 feet AGL
Present Weather: +TSRA FG  (heavy rain associated with thunderstorm(s), fog)
SOME DATA ABOVE MAY BE INACCURATE!!!
"$" is an indication the sensor requires maintenance
KDAB 221853Z 27009G17KT 1/2SM +TSRA FG SCT010 OVC021CB 24/23 A3009 RMK AO2 WSHFT 1825 LTG DSNT ALQDS RAB26 SLP189 CONS LTGICCG OHD-ALQDS TS OHD-ALQDS MOV NE P0099 T02440233 RVRNO $

Conditions at: KDAB observed 22 July 2017  18:39 UTC
Temperature: 25.6°C (78°F)
Dewpoint: 24.4°C (76°F) [RH = 93%]
Pressure (altimeter): 30.09 inches Hg (1019.0 mb)
Winds: from the WNW (300 degrees) at 13 MPH (11 knots; 5.7 m/s)
Visibility: 0.50 miles (0.80 km)
Ceiling: 2500 feet AGL
Clouds: few clouds at 1200 feet AGL
overcast cloud deck at 2500 feet AGL
Present Weather: +TSRA FG  (heavy rain associated with thunderstorm(s), fog)
SOME DATA ABOVE MAY BE INACCURATE!!!
"$" is an indication the sensor requires maintenance
KDAB 221839Z 30011KT 1/2SM +TSRA FG FEW012 OVC025CB 26/24 A3009 RMK AO2 WSHFT 1825 LTG DSNT ALQDS RAB26 PRESRR CONS LTGICCG OHD-ALQDS TS OHD-ALQDS MOV NE P0024 T02560244 RVRNO $

Conditions at: KDAB observed 22 July 2017  18:34 UTC
Temperature: 26.7°C (80°F)
Dewpoint: 25.0°C (77°F) [RH = 90%]
Pressure (altimeter): 30.06 inches Hg (1018.0 mb)
Winds: from the NW (320 degrees) at 14 MPH (12 knots; 6.2 m/s)
Visibility: 1.00 miles (1.61 km)
Ceiling: 2500 feet AGL
Clouds: few clouds at 1200 feet AGL
broken clouds at 2500 feet AGL
broken clouds at 4500 feet AGL
broken clouds at 25000 feet AGL
Present Weather: +TSRA BR  (heavy rain associated with thunderstorm(s), mist)
SOME DATA ABOVE MAY BE INACCURATE!!!
"$" is an indication the sensor requires maintenance
KDAB 221834Z 32012KT 1SM +TSRA BR FEW012 BKN025CB BKN045 BKN250 27/25 A3006 RMK AO2 LTG DSNT ALQDS RAB26 PRESRR CONS LTGICCG OHD-ALQDS TS OHD-ALQDS MOV NE P0020 T02670250 RVRNO $

Conditions at: KDAB observed 22 July 2017  17:53 UTC
Temperature: 31.1°C (88°F)
Dewpoint: 25.0°C (77°F) [RH = 70%]
Pressure (altimeter): 30.04 inches Hg (1017.4 mb)
[Sea-level pressure: 1017.2 mb]
Winds: from the E (100 degrees) at 8 MPH (7 knots; 3.6 m/s)
Visibility: 10 or more miles (16+ km)
Ceiling: 4500 feet AGL
Clouds: scattered clouds at 3100 feet AGL
broken clouds at 4500 feet AGL
broken clouds at 7000 feet AGL
broken clouds at 25000 feet AGL
Present Weather: TS  (thunderstorm)
KDAB 221753Z 10007KT 080V140 10SM TS SCT031CB BKN045 BKN070 BKN250 31/25 A3004 RMK AO2 LTG DSNT S-W TSB39 SLP172 OCNL LTGICCG SW NW TS SW NW MOV NE CB OHD N W MOV NE TCU SE-S CB DSNT SW-NW 60000 T03110250 10328 20244 58018

Conditions at: KDAB observed 22 July 2017  17:43 UTC
Temperature: 30.6°C (87°F)
Dewpoint: 25.6°C (78°F) [RH = 75%]
Pressure (altimeter): 30.05 inches Hg (1017.7 mb)
Winds: from the E (90 degrees) at 9 MPH (8 knots; 4.2 m/s)
Visibility: 10 or more miles (16+ km)
Ceiling: 4500 feet AGL
Clouds: scattered clouds at 3100 feet AGL
broken clouds at 4500 feet AGL
broken clouds at 7000 feet AGL
broken clouds at 25000 feet AGL
Present Weather: TS  (thunderstorm)
KDAB 221743Z 09008KT 10SM TS SCT031CB BKN045 BKN070 BKN250 31/26 A3005 RMK AO2 LTG DSNT SW AND W TSB39 OCNL LTGICCG NW TS NW MOV NE CB OHD-SW-W MOVG NE TCU SE-S T03060256

Conditions at: KDAB observed 22 July 2017  16:53 UTC
Temperature: 32.2°C (90°F)
Dewpoint: 24.4°C (76°F) [RH = 64%]
Pressure (altimeter): 30.06 inches Hg (1018.0 mb)
[Sea-level pressure: 1017.8 mb]
Winds: variable direction winds at 5 MPH (4 knots; 2.1 m/s)
Visibility: 10 or more miles (16+ km)
Ceiling: 3100 feet AGL
Clouds: broken clouds at 3100 feet AGL
broken clouds at 6000 feet AGL
broken clouds at 25000 feet AGL
Present Weather: no significant weather observed at this time
KDAB 221653Z VRB04KT 10SM BKN031TCU BKN060 BKN250 32/24 A3006 RMK AO2 LTG DSNT SW SLP178 TCU OHD-ALQDS CB DSNT SW-NW T03220244

Conditions at: KDAB observed 22 July 2017  15:53 UTC
Temperature: 31.1°C (88°F)
Dewpoint: 24.4°C (76°F) [RH = 68%]
Pressure (altimeter): 30.09 inches Hg (1019.0 mb)
[Sea-level pressure: 1018.7 mb]
Winds: calm
Visibility: 10 or more miles (16+ km)
Ceiling: at least 12,000 feet AGL
Clouds: scattered clouds at 2600 feet AGL
scattered clouds at 5500 feet AGL
scattered clouds at 16000 feet AGL
scattered clouds at 25000 feet AGL
Present Weather: no significant weather observed at this time
KDAB 221553Z 00000KT 10SM SCT026TCU SCT055 SCT160 SCT250 31/24 A3009 RMK AO2 RAB27E32 SLP187 TCU OHD-ALQDS CB DSNT SW-NW P0000 T03110244

Conditions at: KDAB observed 22 July 2017  15:45 UTC
Temperature: 30.6°C (87°F)
Dewpoint: 25.0°C (77°F) [RH = 72%]
Pressure (altimeter): 30.08 inches Hg (1018.7 mb)
Winds: from the S (170 degrees) at 5 MPH (4 knots; 2.1 m/s)
Visibility: 10 or more miles (16+ km)
Ceiling: at least 12,000 feet AGL
Clouds: scattered clouds at 2600 feet AGL
scattered clouds at 5500 feet AGL
scattered clouds at 16000 feet AGL
scattered clouds at 25000 feet AGL
Present Weather: no significant weather observed at this time
KDAB 221545Z 17004KT 10SM SCT026TCU SCT055 SCT160 SCT250 31/25 A3008 RMK AO2 RAB27E32 TCU OHD-ALQDS CB DSNT SW-NW P0000 T03060250

Conditions at: KDAB observed 22 July 2017  14:53 UTC
Temperature: 30.6°C (87°F)
Dewpoint: 24.4°C (76°F) [RH = 70%]
Pressure (altimeter): 30.10 inches Hg (1019.4 mb)
[Sea-level pressure: 1019.0 mb]
Winds: from the SSW (200 degrees) at 6 MPH (5 knots; 2.6 m/s)
Visibility: 10 or more miles (16+ km)
Ceiling: 2400 feet AGL
Clouds: broken clouds at 2400 feet AGL
broken clouds at 5500 feet AGL
broken clouds at 16000 feet AGL
broken clouds at 25000 feet AGL
Present Weather: no significant weather observed at this time
KDAB 221453Z 20005KT 10SM BKN024TCU BKN055 BKN160 BKN250 31/24 A3010 RMK AO2 SLP190 TCU OHD-ALQDS CB DSNT SW-NW T03060244 50007

Conditions at: KDAB observed 22 July 2017  14:32 UTC
Temperature: 30.0°C (86°F)
Dewpoint: 25.6°C (78°F) [RH = 77%]
Pressure (altimeter): 30.10 inches Hg (1019.4 mb)
Winds: from the S (170 degrees) at 6 MPH (5 knots; 2.6 m/s)
Visibility: 10 or more miles (16+ km)
Ceiling: 2200 feet AGL
Clouds: broken clouds at 2200 feet AGL
broken clouds at 10000 feet AGL
broken clouds at 16000 feet AGL
broken clouds at 25000 feet AGL
Present Weather: no significant weather observed at this time
KDAB 221432Z 17005KT 10SM BKN022TCU BKN100 BKN160 BKN250 30/26 A3010 RMK AO2 TCU OHD-ALQDS CB DSNT SW-W T03000256

Conditions at: KDAB observed 22 July 2017  13:53 UTC
Temperature: 29.4°C (85°F)
Dewpoint: 25.0°C (77°F) [RH = 77%]
Pressure (altimeter): 30.10 inches Hg (1019.4 mb)
[Sea-level pressure: 1019.2 mb]
Winds: calm
Visibility: 10 or more miles (16+ km)
Ceiling: at least 12,000 feet AGL
Clouds: few clouds at 2200 feet AGL
few clouds at 10000 feet AGL
few clouds at 15000 feet AGL
few clouds at 25000 feet AGL
Present Weather: no significant weather observed at this time
KDAB 221353Z 00000KT 10SM FEW022 FEW100 FEW150 FEW250 29/25 A3010 RMK AO2 SLP192 CB DSNT SW-NW T02940250

Conditions at: KDAB observed 22 July 2017  12:53 UTC
Temperature: 27.2°C (81°F)
Dewpoint: 25.0°C (77°F) [RH = 88%]
Pressure (altimeter): 30.09 inches Hg (1019.0 mb)
[Sea-level pressure: 1018.8 mb]
Winds: from the SSW (200 degrees) at 5 MPH (4 knots; 2.1 m/s)
Visibility: 10 or more miles (16+ km)
Ceiling: at least 12,000 feet AGL
Clouds: few clouds at 3000 feet AGL
few clouds at 10000 feet AGL
few clouds at 15000 feet AGL
few clouds at 25000 feet AGL
Present Weather: no significant weather observed at this time
KDAB 221253Z 20004KT 10SM FEW030 FEW100 FEW150 FEW250 27/25 A3009 RMK AO2 SLP188 CB DSNT SW-W T02720250

Conditions at: KDAB observed 22 July 2017  11:53 UTC
Temperature: 24.4°C (76°F)
Dewpoint: 23.9°C (75°F) [RH = 97%]
Pressure (altimeter): 30.08 inches Hg (1018.7 mb)
[Sea-level pressure: 1018.4 mb]
Winds: from the SSW (200 degrees) at 6 MPH (5 knots; 2.6 m/s)
Visibility: 10 or more miles (16+ km)
Ceiling: at least 12,000 feet AGL
Clouds: few clouds at 3000 feet AGL
scattered clouds at 14000 feet AGL
scattered clouds at 25000 feet AGL
Present Weather: no significant weather observed at this time
KDAB 221153Z 20005KT 10SM FEW030 SCT140 SCT250 24/24 A3008 RMK AO2 SLP184 CB DSNT SW-NW 70069 T02440239 10244 20233 53018

Conditions at: KDAB observed 22 July 2017  10:53 UTC
Temperature: 23.3°C (74°F)
Dewpoint: 23.3°C (74°F) [RH = 100%]
Pressure (altimeter): 30.05 inches Hg (1017.7 mb)
[Sea-level pressure: 1017.6 mb]
Winds: from the SSW (200 degrees) at 3 MPH (3 knots; 1.6 m/s)
Visibility: 9 miles (14 km)
Ceiling: 25000 feet AGL
Clouds: scattered clouds at 2500 feet AGL
scattered clouds at 15000 feet AGL
broken clouds at 25000 feet AGL
Present Weather: no significant weather observed at this time
KDAB 221053Z 20003KT 9SM SCT025 SCT150 BKN250 23/23 A3005 RMK AO2 SLP176 CB DSNT NE SW-NW TCU DSNT NW T02330233

Conditions at: KDAB observed 22 July 2017  09:53 UTC
Temperature: 23.3°C (74°F)
Dewpoint: 23.3°C (74°F) [RH = 100%]
Pressure (altimeter): 30.04 inches Hg (1017.4 mb)
[Sea-level pressure: 1017.1 mb]
Winds: from the S (190 degrees) at 3 MPH (3 knots; 1.6 m/s)
Visibility: 9 miles (14 km)
Ceiling: at least 12,000 feet AGL
Clouds: few clouds at 2500 feet AGL
few clouds at 7000 feet AGL
scattered clouds at 25000 feet AGL
Present Weather: no significant weather observed at this time
KDAB 220953Z 19003KT 9SM FEW025 FEW070 SCT250 23/23 A3004 RMK AO2 SLP171 T02330233